Time;durP1;ratioP1;P1;durP2;ratioP2;P2;SDS_P1;SDS_P2;PMS_P1;PMS_P2;Temp;Humidity;BMP_temperature;BMP_pressure;BME280_temperature;BME280_humidity;BME280_pressure;Samples;Min_cycle;Max_cycle;Signal;HPM_P1;HPM_P2
2022/06/20 00:01:41;;;;;;;9.40;1.40;;;;;;;17.65;54.07;101278.94;4910307;28;124288;-64
2022/06/20 00:04:14;;;;;;;4.85;1.42;;;;;;;17.63;54.17;101296.94;4909982;28;124579;-64
2022/06/20 00:06:47;;;;;;;5.88;1.67;;;;;;;17.59;54.33;101295.41;4912302;28;113401;-64
2022/06/20 00:09:14;;;;;;;7.28;2.15;;;;;;;17.59;54.38;101300.75;4912528;28;113923;-64
2022/06/20 00:11:45;;;;;;;5.53;1.40;;;;;;;17.58;54.41;101299.06;4910519;28;124119;-64
2022/06/20 00:14:15;;;;;;;7.05;1.52;;;;;;;17.58;54.41;101299.06;4911580;28;122680;-64
2022/06/20 00:16:43;;;;;;;5.47;1.33;;;;;;;17.59;54.35;101295.41;4911720;28;115583;-64
2022/06/20 00:19:11;;;;;;;4.60;1.60;;;;;;;17.59;54.36;101295.41;4911222;28;115115;-64
2022/06/20 00:21:39;;;;;;;4.93;1.58;;;;;;;17.59;54.63;101306.13;4912317;28;124429;-64
2022/06/20 00:24:08;;;;;;;7.28;1.60;;;;;;;17.59;54.38;101306.13;4910005;28;123983;-64
2022/06/20 00:26:36;;;;;;;5.00;1.50;;;;;;;17.58;54.36;101301.75;4901852;28;114450;-64
2022/06/20 00:29:04;;;;;;;6.55;1.20;;;;;;;17.58;54.25;101299.06;4905472;28;113942;-65
2022/06/20 00:31:31;;;;;;;6.28;1.55;;;;;;;17.54;54.34;101276.13;4912318;28;124633;-62
2022/06/20 00:33:58;;;;;;;5.57;1.33;;;;;;;17.50;54.23;101290.69;4911717;28;122609;-66
2022/06/20 00:36:26;;;;;;;4.63;1.27;;;;;;;17.46;54.16;101294.50;4912710;28;115335;-66
2022/06/20 00:38:55;;;;;;;5.22;1.58;;;;;;;17.44;54.28;101309.84;4908496;28;113877;-66
2022/06/20 00:41:30;;;;;;;6.75;2.08;;;;;;;17.41;54.35;101318.09;4909746;28;124036;-66
2022/06/20 00:43:58;;;;;;;5.53;1.50;;;;;;;17.41;54.33;101339.50;4911732;28;123764;-66
2022/06/20 00:46:39;;;;;;;5.00;1.50;;;;;;;17.43;54.49;101359.00;4898618;28;114217;-66
2022/06/20 00:49:24;;;;;;;7.15;1.77;;;;;;;17.44;54.51;101371.41;4910796;28;115335;-66
2022/06/20 00:52:00;;;;;;;8.50;1.70;;;;;;;17.46;54.57;101364.16;4910715;28;124072;-66
2022/06/20 00:54:34;;;;;;;4.90;1.40;;;;;;;17.48;54.86;101351.53;4910089;28;123369;-65
2022/06/20 00:57:06;;;;;;;8.18;1.40;;;;;;;17.53;54.80;101370.81;4909738;28;114404;-66
2022/06/20 00:59:39;;;;;;;6.00;1.63;;;;;;;17.55;54.71;101405.53;4911085;28;113769;-65
2022/06/20 01:02:07;;;;;;;6.40;1.65;;;;;;;17.57;54.59;101415.19;4910188;28;124772;-66
2022/06/20 01:04:59;;;;;;;6.50;1.88;;;;;;;17.57;54.83;101447.34;4898271;28;122776;-66
2022/06/20 01:07:52;;;;;;;7.00;1.60;;;;;;;17.59;54.84;101466.84;4909120;28;115469;-65
2022/06/20 01:10:19;;;;;;;6.75;2.10;;;;;;;17.60;54.89;101484.63;4902237;28;115023;-65
2022/06/20 01:12:51;;;;;;;7.22;2.10;;;;;;;17.63;55.06;101489.81;4909363;28;124822;-65
2022/06/20 01:15:25;;;;;;;5.88;1.60;;;;;;;17.65;54.91;101508.44;4909917;28;124300;-65
2022/06/20 01:17:53;;;;;;;4.38;1.60;;;;;;;17.65;54.94;101493.25;4908597;28;114009;-65
2022/06/20 01:20:34;;;;;;;7.10;1.73;;;;;;;17.65;54.98;101474.50;4912347;28;114066;-65
2022/06/20 01:23:04;;;;;;;5.47;1.55;;;;;;;17.66;55.00;101457.44;4910223;28;124899;-65
2022/06/20 01:25:55;;;;;;;7.22;1.58;;;;;;;17.68;55.24;101455.53;4909997;28;123444;-65
2022/06/20 01:28:28;;;;;;;9.65;1.88;;;;;;;17.73;55.19;101451.72;4908772;28;114202;-65
2022/06/20 01:30:57;;;;;;;4.45;1.33;;;;;;;17.76;54.97;101456.84;4898970;28;113994;-65
2022/06/20 01:33:25;;;;;;;5.38;1.70;;;;;;;17.78;54.96;101449.56;4906304;28;123861;-65
2022/06/20 01:38:42;;;;;;;4.97;1.52;;;;;;;17.79;54.95;101440.59;4912747;28;114601;-65
2022/06/20 01:44:01;;;;;;;5.38;1.50;;;;;;;17.78;54.95;101406.69;4912417;28;124120;-65
2022/06/20 01:46:31;;;;;;;6.32;2.00;;;;;;;17.76;54.98;101397.91;4913984;28;124672;-65
2022/06/20 01:49:14;;;;;;;5.43;1.60;;;;;;;17.70;55.02;101394.66;4912413;28;114629;-66
2022/06/20 01:51:52;;;;;;;7.88;1.70;;;;;;;17.65;54.98;101386.09;4902725;28;114557;-65
2022/06/20 01:54:21;;;;;;;5.22;1.67;;;;;;;17.60;55.15;101393.56;4912169;28;124165;-64
2022/06/20 01:56:52;;;;;;;6.60;1.80;;;;;;;17.58;55.25;101400.00;4908266;28;123796;-65
2022/06/20 01:59:35;;;;;;;7.45;1.80;;;;;;;17.54;55.20;101380.59;4912013;28;116001;-65
2022/06/20 02:02:03;;;;;;;5.22;1.60;;;;;;;17.54;55.26;101372.56;4909052;28;114844;-65
2022/06/20 02:04:33;;;;;;;8.55;1.85;;;;;;;17.49;55.29;101358.59;4912410;28;123944;-62
2022/06/20 02:07:02;;;;;;;7.43;2.08;;;;;;;17.47;55.28;101360.53;4909942;28;124563;-62
2022/06/20 02:09:29;;;;;;;4.88;1.67;;;;;;;17.45;55.28;101362.44;4911142;28;114356;-62
2022/06/20 02:11:58;;;;;;;7.95;1.45;;;;;;;17.43;55.34;101359.00;4912012;28;113400;-63
2022/06/20 02:14:44;;;;;;;6.43;1.75;;;;;;;17.39;55.23;101352.16;4900907;28;124795;-63
2022/06/20 02:17:13;;;;;;;;;;;;;;;17.31;54.82;101342.78;4910114;28;123712;-62
2022/06/20 02:19:47;;;;;;;4.75;1.27;;;;;;;17.26;54.92;101336.88;4913308;28;114370;-62
2022/06/20 02:22:17;;;;;;;4.70;1.27;;;;;;;17.24;55.07;101343.28;4905924;28;114551;-62
2022/06/20 02:24:48;;;;;;;5.85;1.40;;;;;;;17.19;55.24;101332.88;4909839;28;124347;-63
2022/06/20 02:27:28;;;;;;;4.50;1.40;;;;;;;17.19;55.44;101334.69;4909790;28;125127;-63
2022/06/20 02:29:57;;;;;;;6.88;1.52;;;;;;;17.18;55.52;101328.50;4901055;28;113914;-63
2022/06/20 02:32:33;;;;;;;4.80;1.50;;;;;;;17.16;55.64;101319.72;4913850;28;113981;-63
2022/06/20 02:35:01;;;;;;;4.53;1.42;;;;;;;17.15;55.59;101306.41;4906895;28;123892;-63
2022/06/20 02:37:30;;;;;;;5.40;1.60;;;;;;;17.14;55.57;101294.84;4910288;28;123948;-63
2022/06/20 02:40:00;;;;;;;9.45;1.50;;;;;;;17.13;55.56;101301.16;4916338;28;114747;-63
2022/06/20 02:42:35;;;;;;;6.75;1.65;;;;;;;17.12;55.59;101291.41;4916691;28;114596;-63
2022/06/20 02:45:06;;;;;;;6.10;1.73;;;;;;;17.10;55.66;101277.25;4898125;28;125066;-63
2022/06/20 02:47:38;;;;;;;5.68;1.67;;;;;;;17.09;55.49;101281.75;4907606;28;123845;-63
2022/06/20 02:50:06;;;;;;;7.10;1.70;;;;;;;17.08;55.57;101280.06;4899463;28;115114;-63
2022/06/20 02:52:40;;;;;;;4.20;1.50;;;;;;;17.08;55.79;101281.84;4910412;28;114938;-62
2022/06/20 02:55:12;;;;;;;6.00;1.50;;;;;;;17.07;55.46;101282.84;4913195;28;124261;-63
2022/06/20 02:57:47;;;;;;;5.57;1.40;;;;;;;17.06;55.58;101281.94;4911051;28;123702;-63
2022/06/20 03:00:22;;;;;;;6.18;1.63;;;;;;;17.06;55.42;101270.41;4914263;28;114622;-63
2022/06/20 03:02:59;;;;;;;7.87;1.40;;;;;;;17.05;55.52;101263.34;4909919;28;114046;-63
2022/06/20 03:05:26;;;;;;;6.47;1.70;;;;;;;17.04;55.58;101250.91;4905342;28;124814;-63
2022/06/20 03:07:54;;;;;;;5.75;1.60;;;;;;;17.03;55.56;101244.69;4905448;28;124252;-63
2022/06/20 03:10:38;;;;;;;4.95;1.35;;;;;;;17.02;55.59;101252.81;4912292;28;113049;-63
2022/06/20 03:13:07;;;;;;;7.30;1.80;;;;;;;17.04;55.59;101253.59;4910829;28;114503;-63
2022/06/20 03:15:35;;;;;;;4.47;1.30;;;;;;;17.04;55.63;101248.22;4896763;28;123923;-63
2022/06/20 03:18:04;;;;;;;5.57;1.50;;;;;;;17.06;55.52;101238.28;4909187;28;123741;-62
2022/06/20 03:20:33;;;;;;;7.18;1.58;;;;;;;17.06;55.50;101240.97;4914411;28;115512;-62
2022/06/20 03:23:13;;;;;;;4.95;1.40;;;;;;;17.04;55.51;101230.34;4910666;28;113848;-63
2022/06/20 03:25:41;;;;;;;4.30;1.38;;;;;;;17.04;55.16;101241.06;4911572;28;124092;-63
2022/06/20 03:28:13;;;;;;;5.22;1.55;;;;;;;17.04;55.21;101240.19;4909913;28;123857;-63
2022/06/20 03:31:01;;;;;;;6.13;1.92;;;;;;;17.03;55.30;101235.81;4909993;28;114325;-63
2022/06/20 03:33:29;;;;;;;6.55;1.48;;;;;;;17.03;55.23;101243.84;4906361;28;113783;-63
2022/06/20 03:36:01;;;;;;;5.22;1.65;;;;;;;17.03;55.18;101243.84;4910355;28;124726;-63
2022/06/20 03:38:29;;;;;;;7.53;2.10;;;;;;;17.02;55.27;101252.81;4909684;28;123403;-63
2022/06/20 03:40:56;;;;;;;5.25;1.55;;;;;;;17.03;55.30;101254.56;4911458;28;115373;-63
2022/06/20 03:43:25;;;;;;;5.88;1.40;;;;;;;17.04;55.29;101256.25;4915070;28;114560;-63
2022/06/20 03:45:58;;;;;;;4.38;1.42;;;;;;;17.03;55.37;101265.25;4891611;28;124073;-63
2022/06/20 03:48:33;;;;;;;5.57;1.40;;;;;;;17.02;55.43;101279.59;4906612;28;123996;-63
2022/06/20 03:51:13;;;;;;;7.97;1.60;;;;;;;17.05;55.38;101284.75;4903234;28;114090;-63
2022/06/20 03:53:51;;;;;;;4.68;1.48;;;;;;;17.07;55.37;101282.84;4908823;28;114019;-62
2022/06/20 03:56:48;;;;;;;3.53;1.30;;;;;;;17.08;55.41;101281.84;4901926;28;124002;-63
2022/06/20 03:59:25;;;;;;;5.80;1.70;;;;;;;17.10;55.28;101296.88;4898709;28;124768;-63
2022/06/20 04:02:30;;;;;;;7.03;1.45;;;;;;;17.11;55.37;101316.47;4911096;28;114100;-63
2022/06/20 04:05:12;;;;;;;3.85;1.30;;;;;;;17.13;55.23;101325.25;4903254;28;113865;-63
2022/06/20 04:07:48;;;;;;;5.15;1.50;;;;;;;17.17;55.44;101326.75;4910773;28;124218;-63
2022/06/20 04:13:28;;;;;;;6.03;1.15;;;;;;;17.26;55.33;101325.31;4899831;28;114588;-63
2022/06/20 04:16:06;;;;;;;4.75;1.33;;;;;;;17.30;55.34;101316.97;4910831;28;113709;-63
2022/06/20 04:18:43;;;;;;;4.85;1.23;;;;;;;17.33;55.51;101321.28;4902560;28;122804;-63
2022/06/20 04:21:22;;;;;;;4.13;1.52;;;;;;;17.37;55.35;101321.94;4908729;28;124214;-63
2022/06/20 04:24:23;;;;;;;3.63;1.30;;;;;;;17.40;55.52;101327.06;4910827;28;114117;-63
2022/06/20 04:27:03;;;;;;;6.40;1.13;;;;;;;17.44;55.55;101328.56;4904944;28;114311;-63
2022/06/20 04:29:37;;;;;;;5.03;1.77;;;;;;;17.48;55.64;101346.19;4905656;28;124026;-63
2022/06/20 04:32:34;;;;;;;3.42;1.52;;;;;;;17.52;55.45;101347.69;4910565;28;123728;-63
2022/06/20 04:35:19;;;;;;;4.30;1.48;;;;;;;17.57;55.34;101358.94;4894965;28;115057;-63
2022/06/20 04:37:46;;;;;;;;;;;;;;;17.59;55.27;101348.97;4925266;28;114740;-62
2022/06/20 04:40:26;;;;;;;5.40;1.50;;;;;;;17.62;55.31;101354.16;4912425;28;124338;-62
2022/06/20 04:43:01;;;;;;;5.18;1.80;;;;;;;17.65;55.46;101359.31;4911234;28;123852;-62
2022/06/20 04:45:39;;;;;;;6.18;1.95;;;;;;;17.67;55.38;101357.38;4921122;28;114271;-62
2022/06/20 04:48:12;;;;;;;4.15;1.70;;;;;;;17.68;55.58;101364.44;4903860;28;113853;-62
2022/06/20 04:50:47;;;;;;;5.25;1.45;;;;;;;17.68;55.44;101364.44;4893092;28;124308;-62
2022/06/20 04:53:21;;;;;;;9.07;2.00;;;;;;;17.69;55.52;101376.88;4891409;28;123996;-62
2022/06/20 04:55:52;;;;;;;4.57;1.60;;;;;;;17.71;55.42;101374.13;4892902;28;113250;-62
2022/06/20 04:58:25;;;;;;;4.40;1.60;;;;;;;17.71;55.55;101380.31;4890147;28;114322;-62
2022/06/20 05:00:53;;;;;;;5.32;2.00;;;;;;;17.74;55.52;101389.13;4896527;28;123934;-62
2022/06/20 05:03:24;;;;;;;5.75;1.80;;;;;;;17.76;55.44;101387.19;4909939;28;124639;-62
2022/06/20 05:05:55;;;;;;;4.53;1.67;;;;;;;17.78;55.80;101395.97;4910915;28;114372;-62
2022/06/20 05:08:28;;;;;;;7.78;1.60;;;;;;;17.80;55.58;101399.41;4910882;28;113873;-62
2022/06/20 05:11:32;;;;;;;8.57;1.60;;;;;;;17.79;55.42;101409.28;4911535;28;123741;-62
2022/06/20 05:14:02;;;;;;;5.18;1.63;;;;;;;17.82;55.39;101408.22;4875211;28;123514;-62
2022/06/20 05:16:34;;;;;;;4.30;1.40;;;;;;;17.85;55.62;101411.56;4896235;28;114997;-65
2022/06/20 05:19:15;;;;;;;6.50;1.60;;;;;;;17.88;55.78;101402.50;4910717;28;112974;-66
2022/06/20 05:21:46;;;;;;;5.32;1.50;;;;;;;17.91;55.60;101396.91;4909193;28;125386;-65
2022/06/20 05:24:18;;;;;;;7.60;1.63;;;;;;;17.94;55.60;101402.06;4896895;28;123957;-65
2022/06/20 05:26:48;;;;;;;5.38;1.60;;;;;;;17.98;55.57;101403.59;4904375;28;115763;-65
2022/06/20 05:29:45;;;;;;;5.72;1.75;;;;;;;18.03;55.67;101398.78;4903338;28;115039;-66
2022/06/20 05:32:20;;;;;;;5.13;2.20;;;;;;;18.09;55.64;101401.03;4887817;28;124360;-65
2022/06/20 05:34:58;;;;;;;4.05;1.50;;;;;;;18.15;55.72;101402.44;4903707;28;123772;-66
2022/06/20 05:37:36;;;;;;;4.68;1.48;;;;;;;18.21;55.53;101403.84;4911770;28;114376;-66
2022/06/20 05:40:18;;;;;;;6.55;2.03;;;;;;;18.27;55.54;101411.47;4910966;28;114330;-66
2022/06/20 05:42:45;;;;;;;6.03;1.80;;;;;;;18.30;55.41;101419.31;4909013;28;124538;-66
2022/06/20 05:45:20;;;;;;;6.00;2.00;;;;;;;18.33;55.51;101424.47;4903872;28;123842;-66
2022/06/20 05:47:53;;;;;;;;;;;;;;;18.33;55.32;101408.38;4919092;28;114366;-66
2022/06/20 05:50:29;;;;;;;3.65;1.60;;;;;;;18.38;55.26;101406.22;4911098;28;113879;-66
2022/06/20 05:52:59;;;;;;;5.97;1.90;;;;;;;18.42;55.08;101418.47;4908217;28;124316;-66
2022/06/20 05:55:37;;;;;;;6.22;1.90;;;;;;;18.45;55.38;101415.56;4907415;28;123559;-66
2022/06/20 05:58:07;;;;;;;5.32;2.05;;;;;;;18.49;55.25;101405.47;4898176;28;115039;-66
2022/06/20 06:00:36;;;;;;;5.68;1.80;;;;;;;18.52;55.27;101401.75;4906833;28;113307;-65
2022/06/20 06:03:15;;;;;;;6.15;2.08;;;;;;;18.54;55.32;101399.81;4907269;28;124650;-65
2022/06/20 06:05:47;;;;;;;4.50;1.90;;;;;;;18.57;55.31;101400.47;4895857;28;122517;-65
2022/06/20 06:08:26;;;;;;;5.18;1.90;;;;;;;18.62;55.04;101408.16;4902929;28;114528;-65
2022/06/20 06:12:04;;;;;;;7.90;1.88;;;;;;;18.66;55.37;101415.03;4922860;28;113210;-65
2022/06/20 06:14:38;;;;;;;10.73;2.13;;;;;;;18.70;55.41;101411.16;4878693;28;124037;-66
2022/06/20 06:17:14;;;;;;;5.80;2.40;;;;;;;18.75;55.10;101416.22;4908604;28;123699;-65
2022/06/20 06:20:08;;;;;;;3.90;1.77;;;;;;;18.80;55.04;101423.03;4906250;28;115251;-64
2022/06/20 06:22:39;;;;;;;6.95;2.40;;;;;;;18.86;54.95;101427.09;4906994;28;115051;-64
2022/06/20 06:25:23;;;;;;;5.78;1.90;;;;;;;18.92;55.08;101428.50;4898738;28;124086;-65
2022/06/20 06:27:56;;;;;;;7.18;1.83;;;;;;;19.00;55.05;101428.78;4904782;28;124724;-63
2022/06/20 06:30:32;;;;;;;6.75;2.00;;;;;;;19.06;54.76;101422.97;4906777;28;114156;-63
2022/06/20 06:33:20;;;;;;;5.03;1.92;;;;;;;19.09;54.58;101428.13;4909087;28;114018;-63
2022/06/20 06:35:53;;;;;;;6.30;1.80;;;;;;;19.15;54.43;101430.38;4913106;28;124014;-64
2022/06/20 06:38:36;;;;;;;4.90;1.60;;;;;;;19.16;54.31;101429.41;4904501;28;124283;-63
2022/06/20 06:41:11;;;;;;;3.28;1.60;;;;;;;19.20;54.09;101430.91;4914625;28;114715;-64
2022/06/20 06:43:44;;;;;;;6.72;1.70;;;;;;;19.22;53.98;101434.34;4912131;28;113733;-61
2022/06/20 06:46:33;;;;;;;5.05;1.70;;;;;;;19.26;54.12;101430.44;4911342;28;124407;-61
2022/06/20 06:49:08;;;;;;;4.80;1.60;;;;;;;19.32;53.68;101429.16;4900568;28;123901;-61
2022/06/20 06:51:58;;;;;;;5.75;1.60;;;;;;;19.37;53.54;101426.16;4911732;28;114287;-61
2022/06/20 06:54:40;;;;;;;3.83;1.48;;;;;;;19.41;53.72;101430.31;4913771;28;113686;-61
2022/06/20 06:57:29;;;;;;;3.92;1.40;;;;;;;19.52;53.29;101435.75;4926758;28;123499;-61
2022/06/20 07:00:02;;;;;;;5.60;1.60;;;;;;;19.67;53.41;101432.94;4896064;28;124702;-61
2022/06/20 07:02:40;;;;;;;4.47;1.30;;;;;;;19.84;53.13;101429.88;4900672;28;113120;-60
2022/06/20 07:05:15;;;;;;;7.22;1.75;;;;;;;19.98;52.72;101440.41;4895612;28;113802;-61
2022/06/20 07:07:57;;;;;;;6.20;1.50;;;;;;;20.11;52.57;101442.19;4894755;28;124142;-61
2022/06/20 07:10:37;;;;;;;3.53;1.40;;;;;;;20.21;52.41;101440.50;4902740;28;123579;-60
2022/06/20 07:13:35;;;;;;;3.85;1.40;;;;;;;20.29;52.08;101448.03;4905849;28;115044;-61
2022/06/20 07:16:05;;;;;;;5.35;1.33;;;;;;;20.32;51.52;101445.94;4903331;28;115377;-61
2022/06/20 07:18:48;;;;;;;4.00;1.38;;;;;;;20.30;51.31;101447.88;4894685;28;125111;-61
2022/06/20 07:21:18;;;;;;;4.03;1.30;;;;;;;20.27;51.37;101448.13;4910733;28;124171;-61
2022/06/20 07:23:54;;;;;;;3.53;1.30;;;;;;;20.32;51.42;101451.31;4901560;28;114062;-61
2022/06/20 07:26:23;;;;;;;5.63;1.50;;;;;;;20.39;51.06;101449.88;4927429;28;113099;-61
2022/06/20 07:29:06;;;;;;;4.85;2.08;;;;;;;20.41;51.05;101455.97;4895736;28;124315;-61
2022/06/20 07:31:40;;;;;;;4.50;1.60;;;;;;;20.42;50.95;101457.72;4901836;28;124018;-64
2022/06/20 07:34:31;;;;;;;3.80;1.67;;;;;;;20.39;50.82;101452.56;4913987;28;114345;-61
2022/06/20 07:37:04;;;;;;;10.40;2.35;;;;;;;20.38;51.20;101461.63;4903391;28;116059;-61
2022/06/20 07:39:49;;;;;;;5.93;1.83;;;;;;;20.47;51.88;101464.56;4910846;28;123889;-61
2022/06/20 07:42:29;;;;;;;4.68;2.08;;;;;;;20.61;51.53;101465.25;4908048;28;124530;-61
2022/06/20 07:45:10;;;;;;;4.00;1.50;;;;;;;20.76;51.28;101465.88;4902716;28;114334;-61
2022/06/20 07:47:47;;;;;;;5.80;1.90;;;;;;;20.89;50.96;101460.41;4904871;28;113934;-60
2022/06/20 07:50:21;;;;;;;6.15;2.03;;;;;;;21.03;50.51;101461.16;4906967;28;123833;-60
2022/06/20 07:52:58;;;;;;;6.30;2.22;;;;;;;21.19;50.44;101448.13;4893594;28;123831;-60
2022/06/20 07:55:30;;;;;;;4.90;1.80;;;;;;;21.39;50.15;101457.31;4892706;28;113220;-60
2022/06/20 07:58:09;;;;;;;6.38;2.13;;;;;;;21.54;49.53;101456.09;4898368;28;113883;-60
2022/06/20 08:00:44;;;;;;;3.53;1.40;;;;;;;21.61;48.52;101461.00;4910758;28;124066;-60
2022/06/20 08:03:28;;;;;;;4.13;1.40;;;;;;;21.66;48.20;101464.16;4896021;28;124619;-60
2022/06/20 08:06:20;;;;;;;2.95;1.50;;;;;;;21.77;47.90;101474.91;4908923;28;114999;-60
2022/06/20 08:08:52;;;;;;;3.97;1.75;;;;;;;21.87;47.43;101467.78;4908712;28;113891;-60
2022/06/20 08:11:42;;;;;;;4.15;1.88;;;;;;;22.01;47.27;101473.88;4903883;28;124276;-60
2022/06/20 08:14:24;;;;;;;4.10;1.67;;;;;;;22.14;47.32;101474.56;4908145;28;123966;-60
2022/06/20 08:16:58;;;;;;;9.85;2.10;;;;;;;22.28;47.00;101482.41;4912102;28;113079;-61
2022/06/20 08:19:28;;;;;;;3.10;1.50;;;;;;;22.41;46.81;101481.34;4897769;28;114066;-61
2022/06/20 08:22:06;;;;;;;2.75;1.30;;;;;;;22.50;45.99;101483.25;4905572;28;124549;-60
2022/06/20 08:24:53;;;;;;;5.32;1.33;;;;;;;22.58;45.63;101478.03;4910749;28;123917;-60
2022/06/20 08:27:32;;;;;;;2.08;1.10;;;;;;;22.66;45.41;101475.56;4924238;28;114313;-60
2022/06/20 08:30:09;;;;;;;3.40;1.40;;;;;;;22.80;45.12;101481.59;4901135;28;114423;-60
2022/06/20 08:32:49;;;;;;;2.78;1.30;;;;;;;22.94;44.76;101475.81;4909765;28;124039;-60
2022/06/20 08:35:41;;;;;;;4.10;1.30;;;;;;;23.10;44.86;101484.34;4905979;28;123959;-60
2022/06/20 08:38:17;;;;;;;4.43;1.80;;;;;;;23.26;44.22;101482.97;4899539;28;114443;-60
2022/06/20 08:41:03;;;;;;;3.30;1.50;;;;;;;23.37;44.23;101485.59;4908616;28;114132;-60
2022/06/20 08:43:53;;;;;;;5.28;1.50;;;;;;;23.35;43.42;101487.56;4896614;28;123888;-61
2022/06/20 08:46:20;;;;;;;3.35;1.50;;;;;;;23.27;43.31;101484.69;4900418;28;124543;-60
2022/06/20 08:49:18;;;;;;;4.82;2.00;;;;;;;23.16;43.62;101493.75;4895743;28;114165;-61
2022/06/20 08:52:22;;;;;;;3.95;1.80;;;;;;;23.05;43.57;101497.38;4898793;28;113881;-60
2022/06/20 08:55:17;;;;;;;4.47;1.88;;;;;;;22.90;43.59;101499.56;4893989;28;125279;-61
2022/06/20 08:57:54;;;;;;;3.85;1.80;;;;;;;22.78;43.33;101494.38;4896178;28;124176;-60
2022/06/20 09:00:46;;;;;;;4.40;1.95;;;;;;;22.72;43.90;101502.03;4896438;28;115690;-60
2022/06/20 09:03:28;;;;;;;6.68;1.80;;;;;;;22.76;43.96;101509.88;4905960;28;115138;-60
2022/06/20 09:06:24;;;;;;;4.32;1.73;;;;;;;22.79;44.21;101507.72;4899058;28;124712;-61
2022/06/20 09:09:13;;;;;;;6.15;1.90;;;;;;;22.89;43.58;101515.91;4897220;28;124469;-61
2022/06/20 09:11:55;;;;;;;6.18;2.20;;;;;;;22.99;43.28;101514.13;4898081;28;114384;-61
2022/06/20 09:14:38;;;;;;;5.55;1.90;;;;;;;23.00;43.35;101515.84;4898907;28;113971;-61
2022/06/20 09:17:14;;;;;;;5.45;1.85;;;;;;;22.99;43.12;101508.72;4913309;28;123248;-61
2022/06/20 09:20:08;;;;;;;4.57;2.25;;;;;;;22.92;42.99;101518.34;4903125;28;123624;-60
2022/06/20 09:23:11;;;;;;;6.03;2.03;;;;;;;22.85;42.93;101511.75;4903773;28;114140;-60
2022/06/20 09:25:49;;;;;;;4.50;1.80;;;;;;;22.84;42.75;101512.75;4903065;28;113723;-60
2022/06/20 09:28:44;;;;;;;8.00;1.63;;;;;;;22.88;43.23;101525.00;4906892;28;125364;-61
2022/06/20 09:31:17;;;;;;;;;;;;;;;22.85;43.85;101525.25;4904229;28;123839;-61
2022/06/20 09:33:57;;;;;;;4.18;1.50;;;;;;;22.89;42.63;101529.44;4909235;28;113403;-60
2022/06/20 09:36:58;;;;;;;3.97;1.60;;;;;;;22.91;42.50;101522.03;4908653;28;113985;-62
2022/06/20 09:39:56;;;;;;;4.20;1.77;;;;;;;23.01;42.89;101524.78;4903249;28;98467;-62
2022/06/20 09:42:37;;;;;;;5.65;1.70;;;;;;;23.16;42.38;101522.63;4898721;28;123837;-62
2022/06/20 09:45:17;;;;;;;4.00;1.77;;;;;;;23.33;42.42;101522.00;4908715;28;114396;-61
2022/06/20 09:47:56;;;;;;;5.32;2.00;;;;;;;23.41;41.83;101522.16;4902491;28;114210;-64
2022/06/20 09:50:40;;;;;;;7.10;2.08;;;;;;;23.44;41.92;101516.50;4910894;28;124093;-64
2022/06/20 09:53:41;;;;;;;4.72;1.75;;;;;;;23.47;41.98;101529.75;4909136;28;123544;-64
2022/06/20 09:56:24;;;;;;;4.60;1.95;;;;;;;23.49;41.96;101527.75;4892572;28;115251;-64
2022/06/20 09:59:04;;;;;;;5.97;2.00;;;;;;;23.50;41.87;101532.16;4896684;28;114684;-64
2022/06/20 10:01:38;;;;;;;4.75;2.00;;;;;;;23.54;41.64;101529.19;4895076;28;124374;-64
2022/06/20 10:04:11;;;;;;;5.70;2.13;;;;;;;23.58;41.46;101536.03;4912648;28;124957;-64
2022/06/20 10:06:54;;;;;;;7.65;2.00;;;;;;;23.63;40.94;101528.38;4912296;28;114144;-64
2022/06/20 10:09:49;;;;;;;6.30;1.80;;;;;;;23.68;40.94;101531.53;4912976;28;113129;-64
2022/06/20 10:12:33;;;;;;;4.72;1.85;;;;;;;23.74;41.23;101530.97;4910089;28;123809;-64
2022/06/20 10:15:10;;;;;;;6.38;2.10;;;;;;;23.81;41.23;101526.75;4902678;28;123934;-64
2022/06/20 10:17:52;;;;;;;6.63;1.80;;;;;;;23.90;40.66;101528.63;4911759;28;115069;-64
2022/06/20 10:20:40;;;;;;;4.05;2.00;;;;;;;24.00;41.07;101538.63;4914404;28;113881;-64
2022/06/20 10:23:38;;;;;;;5.40;1.70;;;;;;;24.09;41.08;101535.03;4910354;28;123885;-64
2022/06/20 10:26:24;;;;;;;5.30;2.00;;;;;;;24.17;40.00;101537.06;4906025;28;123844;-64
2022/06/20 10:28:57;;;;;;;3.45;1.65;;;;;;;24.22;40.27;101535.66;4907410;28;113508;-64
2022/06/20 10:31:30;;;;;;;6.43;2.20;;;;;;;24.25;39.51;101535.34;4915121;28;114084;-64
2022/06/20 10:34:07;;;;;;;5.53;1.80;;;;;;;24.29;39.82;101547.59;4906673;28;124041;-64
2022/06/20 10:36:59;;;;;;;4.38;1.52;;;;;;;24.36;39.75;101538.94;4910233;28;123779;-64
2022/06/20 10:39:59;;;;;;;5.75;1.98;;;;;;;24.47;40.04;101549.63;4907119;28;114579;-64
2022/06/20 10:42:44;;;;;;;3.38;1.60;;;;;;;24.59;39.54;101547.63;4906108;28;114298;-64
2022/06/20 10:45:18;;;;;;;5.38;1.92;;;;;;;24.63;39.41;101557.19;4903930;28;123898;-64
2022/06/20 10:48:10;;;;;;;6.18;2.08;;;;;;;24.58;39.45;101557.63;4899495;28;123055;-64
2022/06/20 10:50:50;;;;;;;5.82;1.75;;;;;;;24.56;39.88;101559.59;4898572;28;115076;-64
2022/06/20 10:53:44;;;;;;;4.63;1.80;;;;;;;24.61;39.73;101551.91;4895936;28;115617;-64
2022/06/20 10:56:25;;;;;;;8.27;2.33;;;;;;;24.66;39.61;101560.47;4902292;28;123937;-64
2022/06/20 10:59:10;;;;;;;4.57;1.88;;;;;;;24.65;39.10;101558.75;4896590;28;123680;-64
2022/06/20 11:01:52;;;;;;;5.68;1.92;;;;;;;24.60;39.48;101555.63;4897184;28;114744;-64
2022/06/20 11:04:38;;;;;;;5.75;2.05;;;;;;;24.59;39.30;101567.44;4898036;28;114314;-65
2022/06/20 11:07:19;;;;;;;5.82;2.17;;;;;;;24.61;39.09;101562.75;4907423;28;122921;-64
2022/06/20 11:10:04;;;;;;;5.60;2.15;;;;;;;24.70;39.35;101565.59;4909430;28;123345;-64
2022/06/20 11:12:57;;;;;;;4.30;1.70;;;;;;;24.79;39.54;101564.72;4908081;28;114271;-64
2022/06/20 11:15:39;;;;;;;4.97;1.85;;;;;;;24.81;39.05;101565.44;4906684;28;114239;-65
2022/06/20 11:18:27;;;;;;;4.97;1.88;;;;;;;24.76;38.32;101573.16;4900760;28;124679;-64
2022/06/20 11:21:19;;;;;;;5.25;2.25;;;;;;;24.62;38.35;101569.88;4897113;28;124660;-64
2022/06/20 11:24:07;;;;;;;6.25;2.03;;;;;;;24.59;38.02;101570.16;4912494;28;113283;-64
2022/06/20 11:26:43;;;;;;;3.50;1.70;;;;;;;24.62;37.50;101559.03;4895658;28;113979;-64
2022/06/20 11:29:35;;;;;;;5.95;1.70;;;;;;;24.68;38.29;101569.31;4901902;28;124375;-65
2022/06/20 11:32:17;;;;;;;4.95;1.90;;;;;;;24.76;38.46;101575.84;4893086;28;123873;-64
2022/06/20 11:34:58;;;;;;;6.22;1.80;;;;;;;24.78;37.92;101568.44;4909922;28;114469;-65
2022/06/20 11:37:44;;;;;;;4.07;1.60;;;;;;;24.83;38.40;101566.16;4895400;28;113935;-65
2022/06/20 11:40:32;;;;;;;5.72;2.15;;;;;;;24.94;38.07;101557.88;4906851;28;124747;-65
2022/06/20 11:43:05;;;;;;;4.90;1.80;;;;;;;25.06;37.87;101559.38;4900509;28;124321;-64
2022/06/20 11:46:06;;;;;;;4.18;1.50;;;;;;;25.15;37.81;101556.81;4905037;28;114197;-65
2022/06/20 11:48:41;;;;;;;4.03;1.63;;;;;;;25.22;37.54;101563.34;4902651;28;114938;-64
2022/06/20 11:51:14;;;;;;;4.38;1.40;;;;;;;25.25;37.40;101561.22;4897723;28;124383;-64
2022/06/20 11:54:06;;;;;;;4.60;1.60;;;;;;;25.24;37.20;101558.66;4926699;28;123978;-65
2022/06/20 11:56:55;;;;;;;4.57;1.63;;;;;;;25.18;37.22;101565.47;4896481;28;113786;-64
2022/06/20 11:59:53;;;;;;;5.05;1.50;;;;;;;25.09;37.15;101565.53;4903527;28;114158;-65
2022/06/20 12:02:45;;;;;;;7.15;2.33;;;;;;;24.99;37.10;101565.53;4903427;28;124842;-64
2022/06/20 12:05:25;;;;;;;6.60;2.20;;;;;;;24.95;37.06;101570.41;4893046;28;123331;-65
2022/06/20 12:08:20;;;;;;;4.28;1.50;;;;;;;24.92;36.71;101570.72;4893067;28;114768;-65
2022/06/20 12:10:58;;;;;;;3.07;1.40;;;;;;;24.83;36.72;101577.00;4906097;28;113637;-64
2022/06/20 12:13:38;;;;;;;6.72;2.20;;;;;;;24.76;36.51;101575.84;4894740;28;124037;-65
2022/06/20 12:16:57;;;;;;;6.53;2.00;;;;;;;24.61;36.79;101576.28;4907047;28;124266;-65
2022/06/20 12:25:44;;;;;;;2.42;1.10;;;;;;;24.65;37.02;101564.16;4904772;28;124405;-61